Time;durP1;ratioP1;P1;durP2;ratioP2;P2;SDS_P1;SDS_P2;PMS_P1;PMS_P2;Temp;Humidity;BMP_temperature;BMP_pressure;BME280_temperature;BME280_humidity;BME280_pressure;Samples;Min_cycle;Max_cycle;Signal;HPM_P1;HPM_P2
2022/11/20 00:01:24;;;;;;;6.43;4.13;;;;;;;;;;5103790;28;20224;-63
2022/11/20 00:03:52;;;;;;;7.97;3.77;;;;;;;;;;5110514;28;20206;-63
2022/11/20 00:06:20;;;;;;;8.47;4.47;;;;;;;;;;5092578;28;20209;-63
2022/11/20 00:08:49;;;;;;;7.37;5.80;;;;;;;;;;5094530;28;20204;-63
2022/11/20 00:11:17;;;;;;;5.87;3.93;;;;;;;;;;5094300;28;20208;-63
2022/11/20 00:13:44;;;;;;;4.60;3.43;;;;;;;;;;5095437;28;20233;-63
2022/11/20 00:16:13;;;;;;;6.80;3.83;;;;;;;;;;5104526;28;20567;-63
2022/11/20 00:18:42;;;;;;;6.20;4.40;;;;;;;;;;5094120;28;20232;-63
2022/11/20 00:21:11;;;;;;;2.33;2.20;;;;;;;;;;5097624;28;20272;-63
2022/11/20 00:23:38;;;;;;;7.83;5.27;;;;;;;;;;5098022;28;20203;-63
2022/11/20 00:26:07;;;;;;;9.10;4.93;;;;;;;;;;5094510;28;20206;-62
2022/11/20 00:28:34;;;;;;;5.33;3.47;;;;;;;;;;5093932;28;20236;-63
2022/11/20 00:31:02;;;;;;;4.73;4.23;;;;;;;;;;5106877;28;20200;-63
2022/11/20 00:33:29;;;;;;;6.53;4.23;;;;;;;;;;5113549;28;20205;-63
2022/11/20 00:36:00;;;;;;;6.10;4.17;;;;;;;;;;5093163;28;20209;-63
2022/11/20 00:38:27;;;;;;;7.67;4.77;;;;;;;;;;5097650;28;20212;-63
2022/11/20 00:40:56;;;;;;;7.33;4.67;;;;;;;;;;5102609;28;20228;-63
2022/11/20 00:43:24;;;;;;;8.87;5.37;;;;;;;;;;5094619;28;20205;-62
2022/11/20 00:45:51;;;;;;;8.10;4.70;;;;;;;;;;5105347;28;20200;-63
2022/11/20 00:48:18;;;;;;;13.43;5.30;;;;;;;;;;5095764;28;20582;-62
2022/11/20 00:50:45;;;;;;;5.77;3.67;;;;;;;;;;5104474;28;20209;-62
2022/11/20 00:53:12;;;;;;;9.13;4.37;;;;;;;;;;5096167;28;20213;-63
2022/11/20 00:55:39;;;;;;;7.63;4.20;;;;;;;;;;5103154;28;20232;-63
2022/11/20 00:58:07;;;;;;;4.47;3.23;;;;;;;;;;5112396;28;20232;-63
2022/11/20 01:00:35;;;;;;;3.80;3.37;;;;;;;;;;5093315;28;20216;-63
2022/11/20 01:03:02;;;;;;;4.90;3.83;;;;;;;;;;5093663;28;20202;-62
2022/11/20 01:05:29;;;;;;;7.17;4.97;;;;;;;;;;5093215;28;20284;-63
2022/11/20 01:07:57;;;;;;;3.63;3.13;;;;;;;;;;5110269;28;20213;-62
2022/11/20 01:10:24;;;;;;;6.80;3.90;;;;;;;;;;5109015;28;20213;-63
2022/11/20 01:13:36;;;;;;;9.00;4.73;;;;;;;;;;5094973;28;20208;-63
2022/11/20 01:15:39;;;;;;;5.10;3.80;;;;;;;;;;5092573;28;20652;-63
2022/11/20 01:18:06;;;;;;;6.77;4.43;;;;;;;;;;5092034;28;20285;-63
2022/11/20 01:20:36;;;;;;;7.80;4.37;;;;;;;;;;5110801;28;20222;-62
2022/11/20 01:23:03;;;;;;;5.23;3.73;;;;;;;;;;5098664;28;20218;-63
2022/11/20 01:25:30;;;;;;;7.47;5.13;;;;;;;;;;5108458;28;20211;-62
2022/11/20 01:27:57;;;;;;;7.17;5.17;;;;;;;;;;5108006;28;20204;-62
2022/11/20 01:30:24;;;;;;;7.73;4.37;;;;;;;;;;5095960;28;20206;-62
2022/11/20 01:32:53;;;;;;;6.50;3.47;;;;;;;;;;5095221;28;20201;-63
2022/11/20 01:35:20;;;;;;;8.67;4.20;;;;;;;;;;5111603;28;20205;-62
2022/11/20 01:37:47;;;;;;;9.10;5.03;;;;;;;;;;5108784;28;20205;-63
2022/11/20 01:40:14;;;;;;;9.87;5.40;;;;;;;;;;5107349;28;20208;-62
2022/11/20 01:45:57;;;;;;;4.70;2.50;;;;;;;;;;5100218;28;20212;-63
2022/11/20 01:48:27;;;;;;;8.83;4.50;;;;;;;;;;5097817;28;20205;-64
2022/11/20 01:50:55;;;;;;;7.93;4.83;;;;;;;;;;5091533;28;20706;-63
2022/11/20 01:53:25;;;;;;;4.50;4.10;;;;;;;;;;5103454;28;20206;-63
2022/11/20 01:55:54;;;;;;;4.60;3.03;;;;;;;;;;5091489;28;20222;-63
2022/11/20 01:58:24;;;;;;;10.93;5.50;;;;;;;;;;5091405;28;20241;-63
2022/11/20 02:00:51;;;;;;;9.70;5.50;;;;;;;;;;5094401;28;20219;-63
2022/11/20 02:03:19;;;;;;;10.03;5.17;;;;;;;;;;5094971;28;20233;-63
2022/11/20 02:05:49;;;;;;;10.03;5.83;;;;;;;;;;5108980;28;20737;-63
2022/11/20 02:08:17;;;;;;;10.50;5.77;;;;;;;;;;5101514;28;20212;-63
2022/11/20 02:10:44;;;;;;;7.60;5.23;;;;;;;;;;5104687;28;20197;-63
2022/11/20 02:15:56;;;;;;;12.70;5.80;;;;;;;;;;5108889;28;20249;-63
2022/11/20 02:18:23;;;;;;;11.23;5.37;;;;;;;;;;5110736;28;20220;-64
2022/11/20 02:20:55;;;;;;;12.33;6.47;;;;;;;;;;5104731;28;20216;-64
2022/11/20 02:23:26;;;;;;;10.27;5.50;;;;;;;;;;5106263;28;20225;-64
2022/11/20 02:25:55;;;;;;;8.20;4.23;;;;;;;;;;5109159;28;20564;-62
2022/11/20 02:28:23;;;;;;;5.93;4.23;;;;;;;;;;5106255;28;20201;-61
2022/11/20 02:30:50;;;;;;;12.27;6.03;;;;;;;;;;5108497;28;20690;-61
2022/11/20 02:33:17;;;;;;;6.53;4.07;;;;;;;;;;5097087;28;20221;-61
2022/11/20 02:35:46;;;;;;;12.50;6.03;;;;;;;;;;5095423;28;20210;-61
2022/11/20 02:38:13;;;;;;;3.40;3.10;;;;;;;;;;5102730;28;20206;-61
2022/11/20 02:40:40;;;;;;;6.53;4.20;;;;;;;;;;5094746;28;20210;-62
2022/11/20 02:43:09;;;;;;;10.57;4.53;;;;;;;;;;5090620;28;20703;-62
2022/11/20 02:45:36;;;;;;;10.17;4.83;;;;;;;;;;5100825;28;20197;-63
2022/11/20 02:48:03;;;;;;;4.00;3.60;;;;;;;;;;5108741;28;20592;-62
2022/11/20 02:50:30;;;;;;;10.73;6.10;;;;;;;;;;5104435;28;20212;-64
2022/11/20 02:52:57;;;;;;;5.50;3.77;;;;;;;;;;5091351;28;20214;-62
2022/11/20 02:55:24;;;;;;;12.87;6.63;;;;;;;;;;5104685;28;20726;-63
2022/11/20 02:57:52;;;;;;;12.03;6.17;;;;;;;;;;5101510;28;20293;-62
2022/11/20 03:00:20;;;;;;;10.67;6.23;;;;;;;;;;5108879;28;20208;-62
2022/11/20 03:02:47;;;;;;;15.80;6.53;;;;;;;;;;5109118;28;20222;-62
2022/11/20 03:05:14;;;;;;;10.53;5.33;;;;;;;;;;5109693;28;20261;-62
2022/11/20 03:07:41;;;;;;;14.20;5.60;;;;;;;;;;5101630;28;20627;-62
2022/11/20 03:10:09;;;;;;;9.10;6.73;;;;;;;;;;5101974;28;20216;-63
2022/11/20 03:12:36;;;;;;;8.73;5.77;;;;;;;;;;5104533;28;20198;-62
2022/11/20 03:15:03;;;;;;;11.33;5.93;;;;;;;;;;5090801;28;20212;-63
2022/11/20 03:17:32;;;;;;;13.67;5.30;;;;;;;;;;5091982;28;20216;-63
2022/11/20 03:19:59;;;;;;;9.77;5.93;;;;;;;;;;5101588;28;20616;-62
2022/11/20 03:22:26;;;;;;;12.43;6.13;;;;;;;;;;5104528;28;20705;-63
2022/11/20 03:24:53;;;;;;;7.50;4.50;;;;;;;;;;5105396;28;20204;-62
2022/11/20 03:27:20;;;;;;;8.90;3.67;;;;;;;;;;5099915;28;20202;-62
2022/11/20 03:29:47;;;;;;;8.70;5.13;;;;;;;;;;5098848;28;20201;-62
2022/11/20 03:32:14;;;;;;;8.43;4.73;;;;;;;;;;5091594;28;20203;-62
2022/11/20 03:34:42;;;;;;;14.70;5.53;;;;;;;;;;5090722;28;20211;-62
2022/11/20 03:37:09;;;;;;;8.53;5.83;;;;;;;;;;5106500;28;21810;-63
2022/11/20 03:39:37;;;;;;;3.60;2.97;;;;;;;;;;5107137;28;20237;-63
2022/11/20 03:42:44;;;;;;;11.27;5.13;;;;;;;;;;5111597;28;20229;-62
2022/11/20 03:44:51;;;;;;;8.97;5.73;;;;;;;;;;5100814;28;20210;-63
2022/11/20 03:47:18;;;;;;;9.70;5.63;;;;;;;;;;5112825;28;20202;-63
2022/11/20 03:49:46;;;;;;;11.57;6.00;;;;;;;;;;5114567;28;20193;-62
2022/11/20 03:52:13;;;;;;;14.60;7.10;;;;;;;;;;5096015;28;20202;-62
2022/11/20 03:54:40;;;;;;;10.33;5.63;;;;;;;;;;5111464;28;20252;-62
2022/11/20 03:57:07;;;;;;;9.10;5.10;;;;;;;;;;5097323;28;20715;-62
2022/11/20 03:59:35;;;;;;;12.87;5.93;;;;;;;;;;5114768;28;20848;-62
2022/11/20 04:02:02;;;;;;;7.70;4.73;;;;;;;;;;5112125;28;20247;-62
2022/11/20 04:04:29;;;;;;;12.63;5.90;;;;;;;;;;5114555;28;20213;-62
2022/11/20 04:06:57;;;;;;;10.73;5.03;;;;;;;;;;5098441;28;20211;-63
2022/11/20 04:09:24;;;;;;;14.20;6.27;;;;;;;;;;5094339;28;20218;-62
2022/11/20 04:11:51;;;;;;;8.93;5.00;;;;;;;;;;5094862;28;20198;-63
2022/11/20 04:14:18;;;;;;;10.17;6.27;;;;;;;;;;5100915;28;20676;-62
2022/11/20 04:16:45;;;;;;;12.80;6.60;;;;;;;;;;5099527;28;20205;-63
2022/11/20 04:19:13;;;;;;;14.63;6.53;;;;;;;;;;5097773;28;20197;-62
2022/11/20 04:21:41;;;;;;;13.67;6.23;;;;;;;;;;5098460;28;20206;-62
2022/11/20 04:24:10;;;;;;;14.87;6.07;;;;;;;;;;5094191;28;20198;-62
2022/11/20 04:26:37;;;;;;;8.43;5.53;;;;;;;;;;5107152;28;20204;-62
2022/11/20 04:29:05;;;;;;;14.00;6.73;;;;;;;;;;5113501;28;20207;-62
2022/11/20 04:31:33;;;;;;;13.37;5.97;;;;;;;;;;5112563;28;20220;-62
2022/11/20 04:34:01;;;;;;;8.97;4.93;;;;;;;;;;5113230;28;20209;-62
2022/11/20 04:36:29;;;;;;;10.53;5.83;;;;;;;;;;5093262;28;20202;-62
2022/11/20 04:38:56;;;;;;;8.87;5.57;;;;;;;;;;5093507;28;20221;-63
2022/11/20 04:41:26;;;;;;;9.70;5.07;;;;;;;;;;5092903;28;20217;-63
2022/11/20 04:43:53;;;;;;;10.93;6.27;;;;;;;;;;5092995;28;20229;-63
2022/11/20 04:46:21;;;;;;;13.53;5.67;;;;;;;;;;5094371;28;20264;-62
2022/11/20 04:48:48;;;;;;;13.27;5.80;;;;;;;;;;5104670;28;20212;-62
2022/11/20 04:51:16;;;;;;;13.30;7.03;;;;;;;;;;5094301;28;20848;-62
2022/11/20 04:53:43;;;;;;;11.97;5.53;;;;;;;;;;5105893;28;20202;-63
2022/11/20 04:56:11;;;;;;;9.87;5.20;;;;;;;;;;5094687;28;20226;-63
2022/11/20 04:58:40;;;;;;;15.33;5.87;;;;;;;;;;5097643;28;20234;-63
2022/11/20 05:01:08;;;;;;;12.20;6.87;;;;;;;;;;5109220;28;20198;-62
2022/11/20 05:03:35;;;;;;;15.63;7.57;;;;;;;;;;5107647;28;20226;-63
2022/11/20 05:06:03;;;;;;;12.37;6.53;;;;;;;;;;5113374;28;20216;-63
2022/11/20 05:08:30;;;;;;;11.63;5.70;;;;;;;;;;5105237;28;20221;-63
2022/11/20 05:11:00;;;;;;;9.93;5.40;;;;;;;;;;5094201;28;20198;-62
2022/11/20 05:13:28;;;;;;;8.03;5.67;;;;;;;;;;5093143;28;20205;-63
2022/11/20 05:15:56;;;;;;;13.53;5.87;;;;;;;;;;5092368;28;20198;-62
2022/11/20 05:18:23;;;;;;;11.90;5.60;;;;;;;;;;5101773;28;20204;-63
2022/11/20 05:20:56;;;;;;;9.13;5.37;;;;;;;;;;5103459;28;20213;-63
2022/11/20 05:23:23;;;;;;;15.23;6.67;;;;;;;;;;5102216;28;20230;-63
2022/11/20 05:25:53;;;;;;;16.00;6.50;;;;;;;;;;5105652;28;20206;-62
2022/11/20 05:28:20;;;;;;;11.53;5.83;;;;;;;;;;5092516;28;20938;-63
2022/11/20 05:30:47;;;;;;;14.30;5.53;;;;;;;;;;5107657;28;20213;-63
2022/11/20 05:33:15;;;;;;;12.10;6.20;;;;;;;;;;5109293;28;20205;-62
2022/11/20 05:35:43;;;;;;;12.83;6.17;;;;;;;;;;5107406;28;20220;-63
2022/11/20 05:38:10;;;;;;;9.27;5.73;;;;;;;;;;5098026;28;20201;-63
2022/11/20 05:40:37;;;;;;;14.67;7.03;;;;;;;;;;5107142;28;20774;-63
2022/11/20 05:43:04;;;;;;;10.83;6.13;;;;;;;;;;5106036;28;20229;-63
2022/11/20 05:45:31;;;;;;;12.73;5.97;;;;;;;;;;5091927;28;20202;-63
2022/11/20 05:48:00;;;;;;;15.03;7.23;;;;;;;;;;5096014;28;20204;-62
2022/11/20 05:50:28;;;;;;;14.77;6.30;;;;;;;;;;5110986;28;20258;-63
2022/11/20 05:52:55;;;;;;;11.27;6.30;;;;;;;;;;5097837;28;20221;-63
2022/11/20 05:55:22;;;;;;;12.50;6.33;;;;;;;;;;5091435;28;20597;-63
2022/11/20 05:57:49;;;;;;;19.07;6.23;;;;;;;;;;5092139;28;20237;-62
2022/11/20 06:00:17;;;;;;;18.50;6.20;;;;;;;;;;5100422;28;20209;-63
2022/11/20 06:02:44;;;;;;;16.17;6.80;;;;;;;;;;5090760;28;20215;-66
2022/11/20 06:05:11;;;;;;;11.57;5.77;;;;;;;;;;5101122;28;20213;-62
2022/11/20 06:07:39;;;;;;;6.63;4.03;;;;;;;;;;5109857;28;20224;-63
2022/11/20 06:10:06;;;;;;;15.10;6.07;;;;;;;;;;5110766;28;20197;-62
2022/11/20 06:12:33;;;;;;;10.27;5.67;;;;;;;;;;5104375;28;20198;-62
2022/11/20 06:15:01;;;;;;;8.73;5.33;;;;;;;;;;5098297;28;20216;-63
2022/11/20 06:17:28;;;;;;;16.17;6.73;;;;;;;;;;5110549;28;20222;-63
2022/11/20 06:19:55;;;;;;;16.80;7.63;;;;;;;;;;5104406;28;20203;-61
2022/11/20 06:22:22;;;;;;;12.40;5.97;;;;;;;;;;5091076;28;20222;-62
2022/11/20 06:24:50;;;;;;;12.63;6.33;;;;;;;;;;5090646;28;20209;-63
2022/11/20 06:27:18;;;;;;;15.50;6.33;;;;;;;;;;5090741;28;20202;-62
2022/11/20 06:29:45;;;;;;;13.67;5.13;;;;;;;;;;5091104;28;20221;-63
2022/11/20 06:32:12;;;;;;;13.93;6.47;;;;;;;;;;5090780;28;20209;-62
2022/11/20 06:34:39;;;;;;;17.97;6.93;;;;;;;;;;5095024;28;20202;-62
2022/11/20 06:37:06;;;;;;;11.37;6.50;;;;;;;;;;5111246;28;20205;-62
2022/11/20 06:39:33;;;;;;;15.63;6.23;;;;;;;;;;5097278;28;20206;-62
2022/11/20 06:42:01;;;;;;;9.77;5.37;;;;;;;;;;5110240;28;20208;-62
2022/11/20 06:44:28;;;;;;;9.43;5.30;;;;;;;;;;5108187;28;20221;-62
2022/11/20 06:46:56;;;;;;;16.20;5.50;;;;;;;;;;5110935;28;20216;-63
2022/11/20 06:49:23;;;;;;;13.63;6.83;;;;;;;;;;5108861;28;21051;-62
2022/11/20 06:51:50;;;;;;;18.60;5.83;;;;;;;;;;5090758;28;20214;-62
2022/11/20 06:54:17;;;;;;;11.90;4.77;;;;;;;;;;5105641;28;20214;-62
2022/11/20 06:56:48;;;;;;;17.97;6.40;;;;;;;;;;5094749;28;20577;-63
2022/11/20 06:59:16;;;;;;;12.40;5.60;;;;;;;;;;5099080;28;20287;-62
2022/11/20 07:01:43;;;;;;;15.40;6.37;;;;;;;;;;5092781;28;20218;-63
2022/11/20 07:04:10;;;;;;;19.63;6.20;;;;;;;;;;5106925;28;20228;-62
2022/11/20 07:06:37;;;;;;;11.40;6.33;;;;;;;;;;5091459;28;20699;-62
2022/11/20 07:09:04;;;;;;;16.60;6.60;;;;;;;;;;5090634;28;20210;-63
2022/11/20 07:11:31;;;;;;;15.87;5.83;;;;;;;;;;5090716;28;20210;-62
2022/11/20 07:13:59;;;;;;;14.10;6.33;;;;;;;;;;5090380;28;20688;-62
2022/11/20 07:16:27;;;;;;;10.53;5.73;;;;;;;;;;5089609;28;20198;-63
2022/11/20 07:18:54;;;;;;;11.80;5.67;;;;;;;;;;5091552;28;20679;-62
2022/11/20 07:21:21;;;;;;;13.50;6.27;;;;;;;;;;5105367;28;20204;-62
2022/11/20 07:23:48;;;;;;;12.80;5.87;;;;;;;;;;5099565;28;20229;-62
2022/11/20 07:26:15;;;;;;;16.10;6.33;;;;;;;;;;5095185;28;20733;-62
2022/11/20 07:28:45;;;;;;;9.90;5.47;;;;;;;;;;5105267;28;20194;-64
2022/11/20 07:31:12;;;;;;;15.93;7.33;;;;;;;;;;5090909;28;20207;-62
2022/11/20 07:33:41;;;;;;;15.27;6.47;;;;;;;;;;5090193;28;20199;-63
2022/11/20 07:36:08;;;;;;;10.60;5.50;;;;;;;;;;5090017;28;20207;-62
2022/11/20 07:38:35;;;;;;;13.80;6.13;;;;;;;;;;5090409;28;20206;-62
2022/11/20 07:41:02;;;;;;;11.00;5.53;;;;;;;;;;5102297;28;20202;-62
2022/11/20 07:43:29;;;;;;;12.20;6.33;;;;;;;;;;5091108;28;20230;-62
2022/11/20 07:45:57;;;;;;;13.27;6.57;;;;;;;;;;5090279;28;20217;-63
2022/11/20 07:48:24;;;;;;;14.93;5.83;;;;;;;;;;5108540;28;20205;-64
2022/11/20 07:50:54;;;;;;;11.63;6.33;;;;;;;;;;5108535;28;20217;-62
2022/11/20 07:53:21;;;;;;;9.23;5.10;;;;;;;;;;5091621;28;20221;-62
2022/11/20 07:55:49;;;;;;;12.90;6.03;;;;;;;;;;5090985;28;20734;-62
2022/11/20 07:58:16;;;;;;;14.33;6.23;;;;;;;;;;5096096;28;20234;-62
2022/11/20 08:00:43;;;;;;;11.37;6.03;;;;;;;;;;5103402;28;20599;-61
2022/11/20 08:03:10;;;;;;;15.13;5.97;;;;;;;;;;5089995;28;20226;-61
2022/11/20 08:05:37;;;;;;;15.10;6.67;;;;;;;;;;5093659;28;20209;-62
2022/11/20 08:08:06;;;;;;;11.03;6.37;;;;;;;;;;5104912;28;20573;-61
2022/11/20 08:10:33;;;;;;;18.77;8.30;;;;;;;;;;5100576;28;20202;-61
2022/11/20 08:15:50;;;;;;;9.13;5.00;;;;;;;;;;5095291;28;20209;-62
2022/11/20 08:18:17;;;;;;;14.43;6.60;;;;;;;;;;5098583;28;20202;-61
2022/11/20 08:20:44;;;;;;;16.17;6.27;;;;;;;;;;5109214;28;20202;-62
2022/11/20 08:23:13;;;;;;;12.03;5.73;;;;;;;;;;5096252;28;20226;-61
2022/11/20 08:25:40;;;;;;;11.53;6.07;;;;;;;;;;5090880;28;20305;-62
2022/11/20 08:28:08;;;;;;;11.50;5.97;;;;;;;;;;5093822;28;20226;-62
2022/11/20 08:30:36;;;;;;;16.43;6.63;;;;;;;;;;5093263;28;20754;-62
2022/11/20 08:33:03;;;;;;;13.57;6.90;;;;;;;;;;5095236;28;20212;-62
2022/11/20 08:35:34;;;;;;;13.67;6.03;;;;;;;;;;5096695;28;20229;-62
2022/11/20 08:38:01;;;;;;;17.07;7.20;;;;;;;;;;5107602;28;20219;-62
2022/11/20 08:40:30;;;;;;;14.70;7.77;;;;;;;;;;5092493;28;20685;-62
2022/11/20 08:42:57;;;;;;;11.40;6.67;;;;;;;;;;5096592;28;20289;-62
2022/11/20 08:45:24;;;;;;;11.87;6.80;;;;;;;;;;5109461;28;20201;-62
2022/11/20 08:47:51;;;;;;;15.37;7.07;;;;;;;;;;5093060;28;20214;-62
2022/11/20 08:50:18;;;;;;;13.30;6.70;;;;;;;;;;5109997;28;20202;-62
2022/11/20 08:52:45;;;;;;;13.20;6.67;;;;;;;;;;5107723;28;20210;-62
2022/11/20 08:55:13;;;;;;;10.30;6.53;;;;;;;;;;5106459;28;20821;-62
2022/11/20 08:57:41;;;;;;;17.53;7.13;;;;;;;;;;5104011;28;20600;-62
2022/11/20 09:00:09;;;;;;;14.33;6.67;;;;;;;;;;5110594;28;20231;-62
2022/11/20 09:02:36;;;;;;;13.57;6.23;;;;;;;;;;5102770;28;20202;-63
2022/11/20 09:05:04;;;;;;;11.17;6.13;;;;;;;;;;5113257;28;20273;-63
2022/11/20 09:07:31;;;;;;;14.17;7.07;;;;;;;;;;5099434;28;20567;-61
2022/11/20 09:09:58;;;;;;;14.27;6.97;;;;;;;;;;5109820;28;20254;-61
2022/11/20 09:12:25;;;;;;;15.37;6.97;;;;;;;;;;5103178;28;20210;-61
2022/11/20 09:14:54;;;;;;;13.73;6.97;;;;;;;;;;5100813;28;20672;-61
2022/11/20 09:17:21;;;;;;;13.70;6.60;;;;;;;;;;5109725;28;20208;-61
2022/11/20 09:19:48;;;;;;;11.20;6.17;;;;;;;;;;5113296;28;20210;-60
2022/11/20 09:22:15;;;;;;;12.13;6.60;;;;;;;;;;5103624;28;20265;-61
2022/11/20 09:24:43;;;;;;;15.63;7.63;;;;;;;;;;5111268;28;20229;-60
2022/11/20 09:27:10;;;;;;;17.17;7.17;;;;;;;;;;5099455;28;20850;-62
2022/11/20 09:29:37;;;;;;;12.50;6.23;;;;;;;;;;5089231;28;20202;-62
2022/11/20 09:32:06;;;;;;;16.90;8.30;;;;;;;;;;5102545;28;20205;-62
2022/11/20 09:34:33;;;;;;;13.77;7.43;;;;;;;;;;5112244;28;20201;-61
2022/11/20 09:37:00;;;;;;;15.40;7.30;;;;;;;;;;5112128;28;20204;-62
2022/11/20 09:39:27;;;;;;;14.60;7.63;;;;;;;;;;5102412;28;20692;-62
2022/11/20 09:42:12;;;;;;;15.17;7.07;;;;;;;;;;5100289;28;20202;-62
2022/11/20 09:44:47;;;;;;;12.63;6.27;;;;;;;;;;5105797;28;20228;-62
2022/11/20 09:47:18;;;;;;;16.73;8.50;;;;;;;;;;5111028;28;20214;-63
2022/11/20 09:49:54;;;;;;;17.43;7.87;;;;;;;;;;5101759;28;20202;-62
2022/11/20 09:52:23;;;;;;;21.97;8.70;;;;;;;;;;5098686;28;20236;-67
2022/11/20 09:54:52;;;;;;;12.63;6.90;;;;;;;;;;5091637;28;20223;-69
2022/11/20 09:57:21;;;;;;;12.40;6.37;;;;;;;;;;5095908;28;20209;-62
2022/11/20 09:59:51;;;;;;;16.13;7.07;;;;;;;;;;5102933;28;20209;-61
2022/11/20 10:02:29;;;;;;;13.97;6.33;;;;;;;;;;5093603;28;20207;-61
2022/11/20 10:04:58;;;;;;;14.23;7.13;;;;;;;;;;5098988;28;20218;-62
2022/11/20 10:07:29;;;;;;;13.07;6.70;;;;;;;;;;5109949;28;20205;-62
2022/11/20 10:09:57;;;;;;;10.03;6.07;;;;;;;;;;5110697;28;20209;-61
2022/11/20 10:12:28;;;;;;;15.40;7.57;;;;;;;;;;5109945;28;20214;-59
2022/11/20 10:15:00;;;;;;;16.30;7.23;;;;;;;;;;5109703;28;20201;-61
2022/11/20 10:17:36;;;;;;;13.93;6.33;;;;;;;;;;5109626;28;20208;-66
2022/11/20 10:20:14;;;;;;;11.90;6.30;;;;;;;;;;5089330;28;20206;-61
2022/11/20 10:22:45;;;;;;;13.53;6.07;;;;;;;;;;5091178;28;20209;-61
2022/11/20 10:25:15;;;;;;;15.87;7.17;;;;;;;;;;5092023;28;20252;-61
2022/11/20 10:27:57;;;;;;;13.07;6.77;;;;;;;;;;5087498;28;20210;-62
2022/11/20 10:30:25;;;;;;;13.90;7.07;;;;;;;;;;5095589;28;20209;-61
2022/11/20 10:32:56;;;;;;;11.40;6.90;;;;;;;;;;5097085;28;20210;-60
2022/11/20 10:35:25;;;;;;;13.83;7.03;;;;;;;;;;5102764;28;20195;-61
2022/11/20 10:37:55;;;;;;;14.00;7.47;;;;;;;;;;5094072;28;20208;-61
2022/11/20 10:40:25;;;;;;;12.13;6.30;;;;;;;;;;5090809;28;20554;-61
2022/11/20 10:42:55;;;;;;;20.97;7.93;;;;;;;;;;5092440;28;20202;-62
2022/11/20 10:45:39;;;;;;;14.83;5.77;;;;;;;;;;5090312;28;20234;-61
2022/11/20 10:48:16;;;;;;;13.30;7.40;;;;;;;;;;5096507;28;20210;-61
2022/11/20 10:50:49;;;;;;;13.53;6.77;;;;;;;;;;5090379;28;20291;-62
2022/11/20 10:53:21;;;;;;;18.20;7.70;;;;;;;;;;5096372;28;20209;-61
2022/11/20 10:55:52;;;;;;;21.60;7.17;;;;;;;;;;5091020;28;20255;-61
2022/11/20 10:58:22;;;;;;;15.17;6.70;;;;;;;;;;5090433;28;20241;-61
2022/11/20 11:00:49;;;;;;;14.53;7.53;;;;;;;;;;5090559;28;20212;-61
2022/11/20 11:03:24;;;;;;;14.87;7.40;;;;;;;;;;5091360;28;20202;-62
2022/11/20 11:05:52;;;;;;;16.63;7.67;;;;;;;;;;5096991;28;20244;-62
2022/11/20 11:08:20;;;;;;;10.40;6.17;;;;;;;;;;5096749;28;20205;-62
2022/11/20 11:10:50;;;;;;;14.60;7.60;;;;;;;;;;5107917;28;20223;-62
2022/11/20 11:13:21;;;;;;;14.83;7.20;;;;;;;;;;5101533;28;20235;-63
2022/11/20 11:15:48;;;;;;;17.47;7.90;;;;;;;;;;5093504;28;20210;-62
2022/11/20 11:18:25;;;;;;;18.63;9.10;;;;;;;;;;5107023;28;20201;-62
2022/11/20 11:20:53;;;;;;;17.27;8.10;;;;;;;;;;5109907;28;20244;-62
2022/11/20 11:23:28;;;;;;;20.53;9.60;;;;;;;;;;5094220;28;20206;-62
2022/11/20 11:25:59;;;;;;;20.13;9.13;;;;;;;;;;5094173;28;20887;-63
2022/11/20 11:28:27;;;;;;;18.47;7.23;;;;;;;;;;5099616;28;20206;-63
2022/11/20 11:30:55;;;;;;;16.30;8.13;;;;;;;;;;5090197;28;20208;-62
2022/11/20 11:33:23;;;;;;;15.03;7.90;;;;;;;;;;5091414;28;20202;-62
2022/11/20 11:35:53;;;;;;;26.47;11.60;;;;;;;;;;5105131;28;20465;-62
2022/11/20 11:38:23;;;;;;;23.73;10.23;;;;;;;;;;5104544;28;20260;-62
2022/11/20 11:40:50;;;;;;;22.87;10.57;;;;;;;;;;5101103;28;20680;-62
2022/11/20 11:46:11;;;;;;;13.93;7.23;;;;;;;;;;5088341;28;20230;-64
2022/11/20 11:48:39;;;;;;;16.50;8.23;;;;;;;;;;5090505;28;20215;-61
2022/11/20 11:51:10;;;;;;;12.27;6.07;;;;;;;;;;5096424;28;20205;-62
2022/11/20 11:53:42;;;;;;;8.93;6.60;;;;;;;;;;5098482;28;20304;-59
2022/11/20 11:56:10;;;;;;;12.53;6.73;;;;;;;;;;5100886;28;20221;-61
2022/11/20 11:58:43;;;;;;;13.87;6.93;;;;;;;;;;5108351;28;20618;-66
2022/11/20 12:01:19;;;;;;;14.17;7.57;;;;;;;;;;5113605;28;20220;-67
2022/11/20 12:03:49;;;;;;;10.80;6.27;;;;;;;;;;5112456;28;20225;-60
2022/11/20 12:06:34;;;;;;;9.63;6.57;;;;;;;;;;5113644;28;20210;-62
2022/11/20 12:09:05;;;;;;;10.73;6.23;;;;;;;;;;5093305;28;20206;-61
2022/11/20 12:11:34;;;;;;;11.33;6.23;;;;;;;;;;5093574;28;20206;-61
2022/11/20 12:14:04;;;;;;;11.43;6.47;;;;;;;;;;5093650;28;20280;-62
2022/11/20 12:16:35;;;;;;;11.03;6.13;;;;;;;;;;5093685;28;20202;-61
2022/11/20 12:19:02;;;;;;;10.37;5.57;;;;;;;;;;5098340;28;20198;-61
2022/11/20 12:21:32;;;;;;;11.17;6.30;;;;;;;;;;5097247;28;20210;-62
2022/11/20 12:24:08;;;;;;;12.47;6.00;;;;;;;;;;5097830;28;20214;-62
2022/11/20 12:26:43;;;;;;;13.53;7.00;;;;;;;;;;5110934;28;20216;-62
2022/11/20 12:29:14;;;;;;;14.23;7.30;;;;;;;;;;5107241;28;20205;-62
2022/11/20 12:31:49;;;;;;;11.47;6.63;;;;;;;;;;5105293;28;20217;-61
2022/11/20 12:34:25;;;;;;;9.77;5.40;;;;;;;;;;5109815;28;20209;-61
2022/11/20 12:36:55;;;;;;;9.07;5.60;;;;;;;;;;5091965;28;20214;-62
2022/11/20 12:39:40;;;;;;;7.87;4.77;;;;;;;;;;5091816;28;20221;-62
2022/11/20 12:45:32;;;;;;;6.00;4.07;;;;;;;;;;5053197;28;20241;-62
2022/11/20 12:48:08;;;;;;;7.37;4.57;;;;;;;;;;5091502;28;20202;-63
2022/11/20 12:50:40;;;;;;;8.20;4.80;;;;;;;;;;5100965;28;20206;-62
2022/11/20 12:53:10;;;;;;;7.70;4.93;;;;;;;;;;5093138;27;20210;-62
2022/11/20 12:55:46;;;;;;;7.80;5.07;;;;;;;;;;5098243;28;21561;-62
2022/11/20 12:58:20;;;;;;;5.80;4.30;;;;;;;;;;5112133;28;20260;-62
2022/11/20 13:00:56;;;;;;;8.07;5.23;;;;;;;;;;5099451;28;20612;-62
2022/11/20 13:03:30;;;;;;;8.17;4.10;;;;;;;;;;5091897;28;20256;-63
2022/11/20 13:06:01;;;;;;;6.23;3.97;;;;;;;;;;5092311;28;20221;-62
2022/11/20 13:08:29;;;;;;;11.40;4.87;;;;;;;;;;5092325;28;20206;-62
2022/11/20 13:11:01;;;;;;;6.50;3.80;;;;;;;;;;5092620;28;20625;-63
2022/11/20 13:13:32;;;;;;;5.20;3.90;;;;;;;;;;5090858;28;20664;-61
2022/11/20 13:16:03;;;;;;;6.07;4.20;;;;;;;;;;5092639;28;20206;-62
2022/11/20 13:18:35;;;;;;;5.27;4.27;;;;;;;;;;5107316;28;20210;-62
2022/11/20 13:21:02;;;;;;;6.37;3.80;;;;;;;;;;5092402;28;20206;-63
2022/11/20 13:23:29;;;;;;;8.47;3.80;;;;;;;;;;5092499;28;20210;-63
2022/11/20 13:26:07;;;;;;;7.50;4.47;;;;;;;;;;5093596;28;20226;-64
2022/11/20 13:28:34;;;;;;;8.07;4.20;;;;;;;;;;5091898;28;20254;-63
2022/11/20 13:31:02;;;;;;;5.10;4.27;;;;;;;;;;5091482;28;20207;-63
2022/11/20 13:33:31;;;;;;;7.73;4.87;;;;;;;;;;5091144;28;20226;-63
2022/11/20 13:36:00;;;;;;;8.63;4.90;;;;;;;;;;5106476;28;20210;-64
2022/11/20 13:38:27;;;;;;;7.83;4.53;;;;;;;;;;5091347;28;20210;-63
2022/11/20 13:40:55;;;;;;;9.40;4.97;;;;;;;;;;5091545;28;20670;-63
2022/11/20 13:43:30;;;;;;;7.47;4.47;;;;;;;;;;5095061;28;20207;-63
2022/11/20 13:45:58;;;;;;;5.50;4.20;;;;;;;;;;5094946;28;20237;-63
2022/11/20 13:48:31;;;;;;;10.50;4.87;;;;;;;;;;5096328;28;20202;-63
2022/11/20 13:51:05;;;;;;;7.57;5.10;;;;;;;;;;5092734;28;20238;-63
2022/11/20 13:53:38;;;;;;;7.40;5.20;;;;;;;;;;5091113;28;20668;-63
2022/11/20 13:56:09;;;;;;;8.17;4.53;;;;;;;;;;5090534;28;20233;-63
2022/11/20 13:58:46;;;;;;;10.07;5.03;;;;;;;;;;5090785;28;20230;-63
2022/11/20 14:01:16;;;;;;;8.17;4.90;;;;;;;;;;5102187;28;20212;-63
2022/11/20 14:03:45;;;;;;;6.00;4.37;;;;;;;;;;5090702;28;20202;-64
2022/11/20 14:06:15;;;;;;;7.33;5.03;;;;;;;;;;5092277;28;20228;-64
2022/11/20 14:08:43;;;;;;;7.57;5.30;;;;;;;;;;5091017;28;20206;-64
2022/11/20 14:11:16;;;;;;;9.43;5.33;;;;;;;;;;5093580;28;20244;-64
2022/11/20 14:13:53;;;;;;;7.63;5.63;;;;;;;;;;5094530;28;20213;-65
2022/11/20 14:16:21;;;;;;;10.70;5.57;;;;;;;;;;5090680;28;20201;-64
2022/11/20 14:18:49;;;;;;;8.20;4.90;;;;;;;;;;5110628;28;20202;-66
2022/11/20 14:21:23;;;;;;;14.77;6.07;;;;;;;;;;5108957;28;20208;-62
2022/11/20 14:23:50;;;;;;;13.13;6.17;;;;;;;;;;5090285;28;20210;-62
2022/11/20 14:26:20;;;;;;;9.03;5.27;;;;;;;;;;5090434;28;20226;-65
2022/11/20 14:28:49;;;;;;;9.40;5.47;;;;;;;;;;5096704;28;20229;-65
2022/11/20 14:31:20;;;;;;;7.67;5.50;;;;;;;;;;5110847;28;20216;-66
2022/11/20 14:33:48;;;;;;;10.43;6.03;;;;;;;;;;5104153;28;20212;-64
2022/11/20 14:36:19;;;;;;;8.73;5.03;;;;;;;;;;5099286;28;20206;-65
2022/11/20 14:38:47;;;;;;;10.97;5.70;;;;;;;;;;5091013;28;20207;-64
2022/11/20 14:41:18;;;;;;;9.10;5.40;;;;;;;;;;5090787;28;20699;-64
2022/11/20 14:43:47;;;;;;;11.37;6.17;;;;;;;;;;5088851;28;20222;-64
2022/11/20 14:46:14;;;;;;;10.37;5.33;;;;;;;;;;5089730;28;20236;-65
2022/11/20 14:48:43;;;;;;;12.20;5.80;;;;;;;;;;5088800;28;20245;-65
2022/11/20 14:51:10;;;;;;;10.53;5.77;;;;;;;;;;5106978;28;20213;-66
2022/11/20 14:53:39;;;;;;;10.00;5.10;;;;;;;;;;5089853;28;20590;-64
2022/11/20 14:56:06;;;;;;;8.47;5.37;;;;;;;;;;5092801;28;20222;-69
2022/11/20 14:58:34;;;;;;;9.90;5.73;;;;;;;;;;5089605;28;20242;-69